Main page
METAR-TAF:

METAR-TAF

Airports :

Damascus International Airport

Damascus, Syria

latitude: 33-25N, longitude: 036-31E, elevation: 608 m

Current weather observation

The report was made 2 hours and 22 minutes ago, at 21:00 UTC
Calm wind
Temperature 4°C
Humidity 75%
Pressure 1019 hPa
Visibility 10 km or more
Scattered clouds at a height of 3000 ft
Broken clouds at a height of 10000 ft

METAR: OSDI 212100Z 00000KT 9999 SCT030 BKN100 04/00 Q1019

Time: 01:22 (23:22 UTC)

Forecast

The report was made 6 hours and 22 minutes ago, at 17:00 UTC
Forecast valid from 21 at 18 UTC to 22 at 24 UTC
Wind 3 kt from variable directions
Visibility: 7000 m
Temporary
from 22 at 10 UTC to 22 at 20 UTC
Wind 10 kt from the East
Visibility 10 km or more
Few clouds at a height of 3000 ft

TAF: OSDI 211700Z 2118/2224 VRB03KT 7000 TEMPO 2210/2220 08010KT 9999 FEW030

Weather observations and forecasts of more than 4000 airports (METAR and TAF reports).

The available stations are represented by yellow and red dots on the map.

Hover mouse over dot to see the name of the station.

Then click to see weather observations and forecasts.

To change the map : click on the green buttons with a black cross to zoom in, on the green button with a dash to zoom out, or on the green arrows for adjacent maps.


METAR-TAF: